createdAt,value
2023-04-17T00:00:09.695Z,19.90
2023-04-17T00:02:39.851Z,19.90
2023-04-17T00:05:10.237Z,19.90
2023-04-17T00:07:38.884Z,19.90
2023-04-17T00:10:07.828Z,19.90
2023-04-17T00:12:34.916Z,19.90
2023-04-17T00:15:01.682Z,19.90
2023-04-17T00:17:28.504Z,19.90
2023-04-17T00:19:55.243Z,19.90
2023-04-17T00:22:22.036Z,19.90
2023-04-17T00:24:48.794Z,19.90
2023-04-17T00:27:15.446Z,19.90
2023-04-17T00:29:42.528Z,19.90
2023-04-17T00:32:09.334Z,19.90
2023-04-17T00:34:36.526Z,19.90
2023-04-17T00:37:03.193Z,19.90
2023-04-17T00:39:29.853Z,20.00
2023-04-17T00:41:57.444Z,20.00
2023-04-17T00:44:24.545Z,20.00
2023-04-17T00:46:51.589Z,20.00
2023-04-17T00:49:18.347Z,20.00
2023-04-17T00:51:46.032Z,20.00
2023-04-17T00:54:12.702Z,19.90
2023-04-17T00:56:39.398Z,19.90
2023-04-17T00:59:06.511Z,19.90
2023-04-17T01:01:33.349Z,19.90
2023-04-17T01:04:01.812Z,19.90
2023-04-17T01:06:28.787Z,19.90
2023-04-17T01:08:55.580Z,19.80
2023-04-17T01:11:22.295Z,19.80
2023-04-17T01:13:49.752Z,19.80
2023-04-17T01:16:17.769Z,19.80
2023-04-17T01:18:46.070Z,19.80
2023-04-17T01:21:13.018Z,19.80
2023-04-17T01:23:48.637Z,19.80
2023-04-17T01:26:24.805Z,19.90
2023-04-17T01:28:56.183Z,19.90
2023-04-17T01:31:23.786Z,19.90
2023-04-17T01:33:50.949Z,19.80
2023-04-17T01:36:18.124Z,19.90
2023-04-17T01:38:44.789Z,19.90
2023-04-17T01:41:11.537Z,19.90
2023-04-17T01:43:39.285Z,19.80
2023-04-17T01:46:06.290Z,19.90
2023-04-17T01:48:33.579Z,19.90
2023-04-17T01:51:00.618Z,19.90
2023-04-17T01:53:27.553Z,20.00
2023-04-17T01:55:54.470Z,20.00
2023-04-17T01:58:21.197Z,20.00
2023-04-17T02:00:49.191Z,20.00
2023-04-17T02:03:17.931Z,20.00
2023-04-17T02:05:49.333Z,20.00
2023-04-17T02:08:16.185Z,20.00
2023-04-17T02:10:42.934Z,19.90
2023-04-17T02:13:09.898Z,19.90
2023-04-17T02:15:39.704Z,19.90
2023-04-17T02:18:06.749Z,19.90
2023-04-17T02:20:34.194Z,19.90
2023-04-17T02:23:01.155Z,19.80
2023-04-17T02:25:28.268Z,19.80
2023-04-17T02:27:56.128Z,19.80
2023-04-17T02:30:23.915Z,19.80
2023-04-17T02:32:54.567Z,19.80
2023-04-17T02:35:21.799Z,19.80
2023-04-17T02:37:48.716Z,19.80
2023-04-17T02:40:15.955Z,19.80
2023-04-17T02:42:42.808Z,19.80
2023-04-17T02:45:10.262Z,19.80
2023-04-17T02:47:37.333Z,19.80
2023-04-17T02:50:04.314Z,19.80
2023-04-17T02:52:31.725Z,19.80
2023-04-17T02:54:58.515Z,19.80
2023-04-17T02:57:25.411Z,19.80
2023-04-17T02:59:52.748Z,19.80
2023-04-17T03:02:23.068Z,19.80
2023-04-17T03:04:50.997Z,19.90
2023-04-17T03:07:18.756Z,19.90
2023-04-17T03:09:48.626Z,19.90
2023-04-17T03:12:15.525Z,20.00
2023-04-17T03:14:42.374Z,20.00
2023-04-17T03:17:09.736Z,20.00
2023-04-17T03:19:36.494Z,20.00
2023-04-17T03:22:03.560Z,20.00
2023-04-17T03:24:31.449Z,19.90
2023-04-17T03:26:58.774Z,19.90
2023-04-17T03:29:25.497Z,19.90
2023-04-17T03:31:53.011Z,19.90
2023-04-17T03:34:21.542Z,19.90
2023-04-17T03:36:48.461Z,19.80
2023-04-17T03:39:15.183Z,19.80
2023-04-17T03:41:41.946Z,19.80
2023-04-17T03:44:12.457Z,19.80
2023-04-17T03:46:39.225Z,19.80
2023-04-17T03:49:06.315Z,19.80
2023-04-17T03:51:33.045Z,19.80
2023-04-17T03:53:59.955Z,19.80
2023-04-17T03:56:27.144Z,19.80
2023-04-17T03:58:54.666Z,19.80
2023-04-17T04:01:22.341Z,19.80
2023-04-17T04:03:49.331Z,19.80
2023-04-17T04:06:20.194Z,19.80
2023-04-17T04:08:46.997Z,19.80
2023-04-17T04:11:13.897Z,19.80
2023-04-17T04:13:40.860Z,19.80
2023-04-17T04:16:08.110Z,19.80
2023-04-17T04:18:35.930Z,19.80
2023-04-17T04:21:02.611Z,19.90
2023-04-17T04:23:30.546Z,19.90
2023-04-17T04:25:58.043Z,19.90
2023-04-17T04:28:25.645Z,19.90
2023-04-17T04:30:53.624Z,20.00
2023-04-17T04:33:20.576Z,20.00
2023-04-17T04:35:51.804Z,20.00
2023-04-17T04:38:18.652Z,20.00
2023-04-17T04:40:49.940Z,20.00
2023-04-17T04:43:16.750Z,19.90
2023-04-17T04:45:43.846Z,19.90
2023-04-17T04:48:10.562Z,19.90
2023-04-17T04:50:37.230Z,19.90
2023-04-17T04:53:03.894Z,19.80
2023-04-17T04:55:30.698Z,19.80
2023-04-17T04:57:59.163Z,19.80
2023-04-17T05:00:27.417Z,19.80
2023-04-17T05:02:54.465Z,19.80
2023-04-17T05:05:21.777Z,19.80
2023-04-17T05:07:48.500Z,19.80
2023-04-17T05:10:15.617Z,19.80
2023-04-17T05:12:43.106Z,19.80
2023-04-17T05:15:10.400Z,19.80
2023-04-17T05:17:39.002Z,19.80
2023-04-17T05:20:06.991Z,19.80
2023-04-17T05:22:33.719Z,19.90
2023-04-17T05:25:00.566Z,19.90
2023-04-17T05:27:27.373Z,19.80
2023-04-17T05:29:54.296Z,19.80
2023-04-17T05:32:21.457Z,19.90
2023-04-17T05:34:48.227Z,19.80
2023-04-17T05:37:14.957Z,19.80
2023-04-17T05:39:41.708Z,19.90
2023-04-17T05:42:08.362Z,19.90
2023-04-17T05:44:35.085Z,19.90
2023-04-17T05:47:01.861Z,19.90
2023-04-17T05:49:29.950Z,20.00
2023-04-17T05:51:56.796Z,20.00
2023-04-17T05:54:23.503Z,20.00
2023-04-17T05:56:50.217Z,20.00
2023-04-17T05:59:17.133Z,20.00
2023-04-17T06:01:43.912Z,20.00
2023-04-17T06:04:11.575Z,20.00
2023-04-17T06:06:38.436Z,20.00
2023-04-17T06:09:07.193Z,20.10
2023-04-17T06:11:34.102Z,20.10
2023-04-17T06:14:01.759Z,20.10
2023-04-17T06:16:29.683Z,20.00
2023-04-17T06:18:56.501Z,20.10
2023-04-17T06:21:23.214Z,20.00
2023-04-17T06:23:49.988Z,20.10
2023-04-17T06:26:16.745Z,20.10
2023-04-17T06:28:43.728Z,20.10
2023-04-17T06:31:11.270Z,20.10
2023-04-17T06:33:38.465Z,20.10
2023-04-17T06:36:05.688Z,20.10
2023-04-17T06:38:32.841Z,20.10
2023-04-17T06:41:00.943Z,20.10
2023-04-17T06:43:29.133Z,20.20
2023-04-17T06:45:56.363Z,20.20
2023-04-17T06:48:23.445Z,20.20
2023-04-17T06:50:50.527Z,20.20
2023-04-17T06:53:17.489Z,20.20
2023-04-17T06:55:45.305Z,20.20
2023-04-17T06:58:12.338Z,20.20
2023-04-17T07:00:39.077Z,20.20
2023-04-17T07:03:06.377Z,20.10
2023-04-17T07:05:33.439Z,20.20
2023-04-17T07:08:03.547Z,20.20
2023-04-17T07:10:32.090Z,20.10
2023-04-17T07:13:00.204Z,20.10
2023-04-17T07:15:31.168Z,20.10
2023-04-17T07:17:57.981Z,20.20
2023-04-17T07:20:24.813Z,20.20
2023-04-17T07:22:51.622Z,20.30
2023-04-17T07:25:19.860Z,20.20
2023-04-17T07:27:46.658Z,20.20
2023-04-17T07:30:13.907Z,20.10
2023-04-17T07:32:40.657Z,20.10
2023-04-17T07:35:07.844Z,20.10
2023-04-17T07:37:34.879Z,20.10
2023-04-17T07:40:02.421Z,20.20
2023-04-17T07:42:29.331Z,20.30
2023-04-17T07:44:57.314Z,20.40
2023-04-17T07:47:24.410Z,20.40
2023-04-17T07:49:51.397Z,20.40
2023-04-17T07:52:18.251Z,20.40
2023-04-17T07:54:45.093Z,20.40
2023-04-17T07:57:11.891Z,20.50
2023-04-17T07:59:38.700Z,20.40
2023-04-17T08:02:05.866Z,20.50
2023-04-17T08:04:33.433Z,20.50
2023-04-17T08:07:01.711Z,20.40
2023-04-17T08:09:28.718Z,20.50
2023-04-17T08:11:57.494Z,20.50
2023-04-17T08:14:25.083Z,20.40
2023-04-17T08:16:52.097Z,20.40
2023-04-17T08:19:19.081Z,20.30
2023-04-17T08:21:49.202Z,20.30
2023-04-17T08:24:18.716Z,20.30
2023-04-17T08:26:46.363Z,20.40
2023-04-17T08:29:13.869Z,20.40
2023-04-17T08:31:41.260Z,20.40
2023-04-17T08:34:14.212Z,20.40
2023-04-17T08:36:41.901Z,20.30
2023-04-17T08:39:10.174Z,20.30
2023-04-17T08:41:42.976Z,20.30
2023-04-17T08:44:09.732Z,20.40
2023-04-17T08:46:36.545Z,20.40
2023-04-17T08:49:03.395Z,20.30
2023-04-17T08:51:31.351Z,20.30
2023-04-17T08:53:58.037Z,20.30
2023-04-17T08:56:24.800Z,20.30
2023-04-17T08:58:51.475Z,20.40
2023-04-17T09:01:20.458Z,20.40
2023-04-17T09:03:48.134Z,20.30
2023-04-17T09:06:15.396Z,20.40
2023-04-17T09:08:55.942Z,20.40
2023-04-17T09:11:22.665Z,20.40
2023-04-17T09:13:49.491Z,20.40
2023-04-17T09:16:16.500Z,20.40
2023-04-17T09:18:43.473Z,20.30
2023-04-17T09:21:10.251Z,20.40
2023-04-17T09:24:07.475Z,20.30
2023-04-17T09:26:34.196Z,20.20
2023-04-17T09:29:12.324Z,20.30
2023-04-17T09:31:43.137Z,20.40
2023-04-17T09:34:12.051Z,20.30
2023-04-17T09:36:40.035Z,20.20
2023-04-17T09:39:20.711Z,20.20
2023-04-17T09:41:47.762Z,20.20
2023-04-17T09:44:36.850Z,20.20
2023-04-17T09:47:04.499Z,20.20
2023-04-17T09:49:42.624Z,20.20
2023-04-17T09:52:09.476Z,20.20
2023-04-17T09:54:37.870Z,20.20
2023-04-17T09:57:08.277Z,20.10
2023-04-17T09:59:41.613Z,20.20
2023-04-17T10:02:09.647Z,20.10
2023-04-17T10:04:36.762Z,20.10
2023-04-17T10:07:04.503Z,20.20
2023-04-17T10:09:32.438Z,20.20
2023-04-17T10:11:59.239Z,20.20
2023-04-17T10:14:27.885Z,20.20
2023-04-17T10:16:54.786Z,20.10
2023-04-17T10:19:32.075Z,20.20
2023-04-17T10:22:19.202Z,20.20
2023-04-17T10:24:52.049Z,20.20
2023-04-17T10:27:27.614Z,20.20
2023-04-17T10:29:55.545Z,20.20
2023-04-17T10:32:26.289Z,20.30
2023-04-17T10:34:54.002Z,20.30
2023-04-17T10:37:22.894Z,20.30
2023-04-17T10:40:00.496Z,20.30
2023-04-17T10:42:29.475Z,20.20
2023-04-17T10:44:58.878Z,20.30
2023-04-17T10:47:35.377Z,20.20
2023-04-17T10:50:04.021Z,20.20
2023-04-17T10:52:34.564Z,20.20
2023-04-17T10:55:08.309Z,20.40
2023-04-17T10:57:54.000Z,20.40
2023-04-17T11:00:21.769Z,20.30
2023-04-17T11:02:50.481Z,20.30
2023-04-17T11:05:18.259Z,20.20
2023-04-17T11:07:50.271Z,20.30
2023-04-17T11:10:18.434Z,20.30
2023-04-17T11:12:53.310Z,20.20
2023-04-17T11:15:30.789Z,20.20
2023-04-17T11:17:58.126Z,20.20
2023-04-17T11:20:26.093Z,20.10
2023-04-17T11:22:53.063Z,20.10
2023-04-17T11:25:21.096Z,20.10
2023-04-17T11:27:51.050Z,20.10
2023-04-17T11:30:28.241Z,20.10
2023-04-17T11:32:56.962Z,20.10
2023-04-17T11:35:27.666Z,20.10
2023-04-17T11:38:17.814Z,20.10
2023-04-17T11:40:56.130Z,20.10
2023-04-17T11:43:23.353Z,20.00
2023-04-17T11:45:54.382Z,20.00
2023-04-17T11:48:22.975Z,20.00
2023-04-17T11:50:49.750Z,20.00
2023-04-17T11:53:16.892Z,20.00
2023-04-17T11:55:44.329Z,20.00
2023-04-17T11:58:12.122Z,20.00
2023-04-17T12:00:40.594Z,20.00
2023-04-17T12:03:45.307Z,20.00
2023-04-17T12:06:13.195Z,20.00
2023-04-17T12:08:52.045Z,20.00
2023-04-17T12:11:29.631Z,20.00
2023-04-17T12:13:56.652Z,20.00
2023-04-17T12:16:26.802Z,20.10
2023-04-17T12:18:53.956Z,20.10
2023-04-17T12:21:20.860Z,20.00
2023-04-17T12:23:47.852Z,20.00
2023-04-17T12:26:14.577Z,20.00
2023-04-17T12:28:41.280Z,20.00
2023-04-17T12:31:07.995Z,20.00
2023-04-17T12:33:36.530Z,20.10
2023-04-17T12:36:05.295Z,20.10
2023-04-17T12:38:32.230Z,20.00
2023-04-17T12:40:58.960Z,20.10
2023-04-17T12:43:25.773Z,20.00
2023-04-17T12:45:52.802Z,20.10
2023-04-17T12:48:20.710Z,20.10
2023-04-17T12:50:47.372Z,20.20
2023-04-17T12:53:14.814Z,20.20
2023-04-17T12:55:43.493Z,20.30
2023-04-17T12:58:11.569Z,20.30
2023-04-17T13:00:39.178Z,20.30
2023-04-17T13:03:07.703Z,20.30
2023-04-17T13:05:35.358Z,20.30
2023-04-17T13:08:02.080Z,20.30
2023-04-17T13:10:29.385Z,20.40
2023-04-17T13:12:56.306Z,20.40
2023-04-17T13:15:23.293Z,20.40
2023-04-17T13:17:50.044Z,20.40
2023-04-17T13:20:16.803Z,20.40
2023-04-17T13:22:43.541Z,20.40
2023-04-17T13:25:10.356Z,20.40
2023-04-17T13:27:37.694Z,20.40
2023-04-17T13:30:05.953Z,20.50
2023-04-17T13:32:36.400Z,20.40
2023-04-17T13:35:05.501Z,20.40
2023-04-17T13:37:32.656Z,20.40
2023-04-17T13:39:59.804Z,20.40
2023-04-17T13:42:26.957Z,20.40
2023-04-17T13:44:53.674Z,20.40
2023-04-17T13:47:20.722Z,20.40
2023-04-17T13:49:47.501Z,20.40
2023-04-17T13:52:14.436Z,20.40
2023-04-17T13:54:41.693Z,20.40
2023-04-17T13:57:09.573Z,20.40
2023-04-17T13:59:37.595Z,20.40
2023-04-17T14:02:05.864Z,20.50
2023-04-17T14:04:32.843Z,20.50
2023-04-17T14:06:59.755Z,20.50
2023-04-17T14:09:26.522Z,20.50
2023-04-17T14:11:53.471Z,20.50
2023-04-17T14:14:20.303Z,20.50
2023-04-17T14:16:48.815Z,20.50
2023-04-17T14:19:15.755Z,20.50
2023-04-17T14:21:42.826Z,20.50
2023-04-17T14:24:09.805Z,20.50
2023-04-17T14:26:38.206Z,20.50
2023-04-17T14:29:06.310Z,20.60
2023-04-17T14:31:33.184Z,20.60
2023-04-17T14:33:59.978Z,20.50
2023-04-17T14:36:26.680Z,20.60
2023-04-17T14:38:54.377Z,20.60
2023-04-17T14:41:21.191Z,20.60
2023-04-17T14:43:47.952Z,20.50
2023-04-17T14:46:14.914Z,20.50
2023-04-17T14:51:15.271Z,20.50
2023-04-17T14:53:42.078Z,20.50
2023-04-17T14:56:09.293Z,20.50
2023-04-17T14:58:37.575Z,20.50
2023-04-17T15:01:06.220Z,20.50
2023-04-17T15:03:33.227Z,20.50
2023-04-17T15:06:02.468Z,20.50
2023-04-17T15:08:31.110Z,20.50
2023-04-17T15:10:58.716Z,20.50
2023-04-17T15:13:25.897Z,20.50
2023-04-17T15:15:52.933Z,20.40
2023-04-17T15:18:19.923Z,20.50
2023-04-17T15:20:47.149Z,20.50
2023-04-17T15:23:14.143Z,20.50
2023-04-17T15:25:41.633Z,20.50
2023-04-17T15:28:09.022Z,20.50
2023-04-17T15:30:37.349Z,20.40
2023-04-17T15:33:07.173Z,20.40
2023-04-17T15:35:37.375Z,20.40
2023-04-17T15:38:07.260Z,20.40
2023-04-17T15:40:34.004Z,20.40
2023-04-17T15:43:01.096Z,20.40
2023-04-17T15:45:27.917Z,20.40
2023-04-17T15:47:54.764Z,20.30
2023-04-17T15:50:21.684Z,20.30
2023-04-17T15:52:48.453Z,20.30
2023-04-17T15:55:15.818Z,20.30
2023-04-17T15:57:43.379Z,20.30
2023-04-17T16:00:10.704Z,20.30
2023-04-17T16:02:38.360Z,20.30
2023-04-17T16:05:07.129Z,20.30
2023-04-17T16:07:33.853Z,20.30
2023-04-17T16:10:00.576Z,20.30
2023-04-17T16:12:28.269Z,20.30
2023-04-17T16:14:54.998Z,20.30
2023-04-17T16:17:21.783Z,20.30
2023-04-17T16:19:51.092Z,20.30
2023-04-17T16:22:18.802Z,20.30
2023-04-17T16:24:45.946Z,20.30
2023-04-17T16:27:12.740Z,20.40
2023-04-17T16:29:39.427Z,20.40
2023-04-17T16:32:07.684Z,20.40
2023-04-17T16:34:34.452Z,20.50
2023-04-17T16:37:03.280Z,20.50
2023-04-17T16:39:30.040Z,20.50
2023-04-17T16:41:57.703Z,20.50
2023-04-17T16:44:27.524Z,20.50
2023-04-17T16:49:25.215Z,20.50
2023-04-17T16:51:51.921Z,20.50
2023-04-17T16:54:20.533Z,20.50
2023-04-17T16:56:50.109Z,20.50
2023-04-17T16:59:16.890Z,20.50
2023-04-17T17:01:43.679Z,20.50
2023-04-17T17:04:10.531Z,20.60
2023-04-17T17:06:37.854Z,20.60
2023-04-17T17:09:04.742Z,20.60
2023-04-17T17:11:32.114Z,20.70
2023-04-17T17:13:58.867Z,20.70
2023-04-17T17:16:25.693Z,20.70
2023-04-17T17:18:52.516Z,20.70
2023-04-17T17:21:19.502Z,20.70
2023-04-17T17:23:46.275Z,20.60
2023-04-17T17:26:13.068Z,20.50
2023-04-17T17:28:39.735Z,20.50
2023-04-17T17:31:08.364Z,20.50
2023-04-17T17:33:36.372Z,20.50
2023-04-17T17:36:03.202Z,20.50
2023-04-17T17:38:32.300Z,20.50
2023-04-17T17:40:59.127Z,20.60
2023-04-17T17:43:26.917Z,20.50
2023-04-17T17:45:53.737Z,20.50
2023-04-17T17:48:20.806Z,20.50
2023-04-17T17:50:47.619Z,20.50
2023-04-17T17:53:16.925Z,20.60
2023-04-17T17:55:47.851Z,20.60
2023-04-17T17:58:14.609Z,20.70
2023-04-17T18:00:41.315Z,20.70
2023-04-17T18:03:08.268Z,20.60
2023-04-17T18:05:36.675Z,20.60
2023-04-17T18:08:03.361Z,20.50
2023-04-17T18:10:30.152Z,20.50
2023-04-17T18:12:56.993Z,20.50
2023-04-17T18:15:23.670Z,20.60
2023-04-17T18:17:50.539Z,20.70
2023-04-17T18:20:17.361Z,20.70
2023-04-17T18:22:44.210Z,20.70
2023-04-17T18:25:11.225Z,20.60
2023-04-17T18:27:38.112Z,20.50
2023-04-17T18:30:07.524Z,20.50
2023-04-17T18:32:34.779Z,20.40
2023-04-17T18:35:02.105Z,20.50
2023-04-17T18:37:28.950Z,20.40
2023-04-17T18:39:55.629Z,20.50
2023-04-17T18:42:22.307Z,20.60
2023-04-17T18:44:49.817Z,20.40
2023-04-17T18:47:16.757Z,20.40
2023-04-17T18:49:43.550Z,20.40
2023-04-17T18:52:10.205Z,20.40
2023-04-17T18:54:37.589Z,20.50
2023-04-17T18:57:04.524Z,20.50
2023-04-17T18:59:31.907Z,20.50
2023-04-17T19:01:58.689Z,20.50
2023-04-17T19:04:26.013Z,20.50
2023-04-17T19:06:52.941Z,20.50
2023-04-17T19:09:19.755Z,20.50
2023-04-17T19:11:46.743Z,20.50
2023-04-17T19:14:13.624Z,20.40
2023-04-17T19:16:47.143Z,20.50
2023-04-17T19:19:15.431Z,20.50
2023-04-17T19:21:42.375Z,20.60
2023-04-17T19:24:09.151Z,20.50
2023-04-17T19:26:37.354Z,20.50
2023-04-17T19:29:05.939Z,20.40
2023-04-17T19:31:33.031Z,20.50
2023-04-17T19:34:00.336Z,20.40
2023-04-17T19:36:28.126Z,20.40
2023-04-17T19:38:55.858Z,20.40
2023-04-17T19:41:22.661Z,20.40
2023-04-17T19:43:51.130Z,20.40
2023-04-17T19:46:18.717Z,20.40
2023-04-17T19:48:45.789Z,20.40
2023-04-17T19:51:13.106Z,20.40
2023-04-17T19:53:40.899Z,20.40
2023-04-17T19:56:08.850Z,20.40
2023-04-17T19:58:36.155Z,20.50
2023-04-17T20:01:03.391Z,20.50
2023-04-17T20:03:30.551Z,20.50
2023-04-17T20:05:57.986Z,20.50
2023-04-17T20:08:25.617Z,20.50
2023-04-17T20:10:52.459Z,20.50
2023-04-17T20:13:21.489Z,20.50
2023-04-17T20:15:48.418Z,20.50
2023-04-17T20:18:15.250Z,20.50
2023-04-17T20:20:41.987Z,20.50
2023-04-17T20:23:08.913Z,20.50
2023-04-17T20:25:36.497Z,20.60
2023-04-17T20:28:03.233Z,20.50
2023-04-17T20:30:30.464Z,20.50
2023-04-17T20:32:57.335Z,20.50
2023-04-17T20:35:24.792Z,20.50
2023-04-17T20:37:51.874Z,20.50
2023-04-17T20:40:19.008Z,20.50
2023-04-17T20:42:46.385Z,20.40
2023-04-17T20:45:13.364Z,20.40
2023-04-17T20:47:54.975Z,20.40
2023-04-17T20:50:23.106Z,20.30
2023-04-17T20:52:49.843Z,20.30
2023-04-17T20:55:19.981Z,20.30
2023-04-17T20:57:47.097Z,20.30
2023-04-17T21:00:14.470Z,20.30
2023-04-17T21:02:41.327Z,20.30
2023-04-17T21:05:09.532Z,20.30
2023-04-17T21:07:37.639Z,20.30
2023-04-17T21:10:05.199Z,20.30
2023-04-17T21:12:32.982Z,20.40
2023-04-17T21:15:00.001Z,20.40
2023-04-17T21:17:26.722Z,20.40
2023-04-17T21:19:55.770Z,20.40
2023-04-17T21:22:22.489Z,20.40
2023-04-17T21:24:49.218Z,20.30
2023-04-17T21:27:16.267Z,20.30
2023-04-17T21:29:42.996Z,20.30
2023-04-17T21:32:10.549Z,20.30
2023-04-17T21:34:37.308Z,20.30
2023-04-17T21:37:04.916Z,20.20
2023-04-17T21:39:33.252Z,20.20
2023-04-17T21:42:00.597Z,20.20
2023-04-17T21:44:27.444Z,20.20
2023-04-17T21:46:54.175Z,20.10
2023-04-17T21:49:21.336Z,20.10
2023-04-17T21:51:48.063Z,20.10
2023-04-17T21:54:15.218Z,20.10
2023-04-17T21:56:42.527Z,20.10
2023-04-17T21:59:13.980Z,20.20
2023-04-17T22:01:42.257Z,20.20
2023-04-17T22:04:09.256Z,20.20
2023-04-17T22:06:36.996Z,20.20
2023-04-17T22:09:04.750Z,20.20
2023-04-17T22:11:31.457Z,20.20
2023-04-17T22:13:58.254Z,20.30
2023-04-17T22:16:24.963Z,20.30
2023-04-17T22:18:51.670Z,20.20
2023-04-17T22:21:18.460Z,20.20
2023-04-17T22:23:45.219Z,20.20
2023-04-17T22:26:13.482Z,20.20
2023-04-17T22:28:40.698Z,20.20
2023-04-17T22:31:09.852Z,20.20
2023-04-17T22:33:36.825Z,20.20
2023-04-17T22:36:03.693Z,20.10
2023-04-17T22:38:30.385Z,20.10
2023-04-17T22:40:57.047Z,20.10
2023-04-17T22:43:23.749Z,20.10
2023-04-17T22:45:50.533Z,20.10
2023-04-17T22:48:18.276Z,20.10
2023-04-17T22:50:45.588Z,20.10
2023-04-17T22:53:12.906Z,20.10
2023-04-17T22:55:40.212Z,20.10
2023-04-17T22:58:06.948Z,20.10
2023-04-17T23:00:33.702Z,20.10
2023-04-17T23:03:00.408Z,20.10
2023-04-17T23:05:27.091Z,20.10
2023-04-17T23:07:53.850Z,20.10
2023-04-17T23:10:20.845Z,20.10
2023-04-17T23:12:47.584Z,20.10
2023-04-17T23:15:15.729Z,20.10
2023-04-17T23:17:42.460Z,20.10
2023-04-17T23:20:09.491Z,20.00
2023-04-17T23:22:36.573Z,20.00
2023-04-17T23:25:03.818Z,20.00
2023-04-17T23:27:31.528Z,20.00
2023-04-17T23:29:59.422Z,20.00
2023-04-17T23:32:26.353Z,20.00
2023-04-17T23:34:53.089Z,20.00
2023-04-17T23:37:19.863Z,20.00
2023-04-17T23:39:47.487Z,20.00
2023-04-17T23:42:14.224Z,20.00
2023-04-17T23:44:40.926Z,20.00
2023-04-17T23:47:07.699Z,19.90
2023-04-17T23:49:35.967Z,19.90
2023-04-17T23:52:02.671Z,19.90
2023-04-17T23:54:29.340Z,19.90
2023-04-17T23:56:56.497Z,20.00
2023-04-17T23:59:23.327Z,20.00
